createdAt,value
2023-03-04T00:01:51.455Z,93.62
2023-03-04T00:04:18.589Z,93.95
2023-03-04T00:06:45.761Z,94.11
2023-03-04T00:09:12.879Z,94.05
2023-03-04T00:11:40.185Z,93.66
2023-03-04T00:14:07.591Z,93.40
2023-03-04T00:16:34.804Z,93.59
2023-03-04T00:19:01.723Z,93.84
2023-03-04T00:21:29.321Z,93.68
2023-03-04T00:23:56.513Z,93.56
2023-03-04T00:26:23.895Z,94.02
2023-03-04T00:28:51.008Z,93.95
2023-03-04T00:31:18.288Z,94.08
2023-03-04T00:33:45.325Z,93.92
2023-03-04T00:36:12.750Z,94.19
2023-03-04T00:38:39.667Z,94.17
2023-03-04T00:41:07.371Z,94.01
2023-03-04T00:43:34.706Z,94.25
2023-03-04T00:46:02.148Z,94.13
2023-03-04T00:48:30.261Z,93.99
2023-03-04T00:50:57.416Z,94.14
2023-03-04T00:53:24.701Z,94.41
2023-03-04T00:55:51.885Z,94.34
2023-03-04T00:58:19.210Z,94.47
2023-03-04T01:00:46.470Z,94.41
2023-03-04T01:03:13.586Z,94.06
2023-03-04T01:05:41.106Z,94.08
2023-03-04T01:08:08.016Z,93.96
2023-03-04T01:10:35.221Z,94.48
2023-03-04T01:13:02.865Z,94.28
2023-03-04T01:15:30.066Z,94.41
2023-03-04T01:17:57.293Z,94.68
2023-03-04T01:20:24.997Z,94.88
2023-03-04T01:22:52.129Z,94.75
2023-03-04T01:25:19.460Z,94.63
2023-03-04T01:27:46.411Z,94.58
2023-03-04T01:30:14.235Z,94.50
2023-03-04T01:32:41.541Z,94.38
2023-03-04T01:35:10.016Z,94.63
2023-03-04T01:37:38.138Z,94.58
2023-03-04T01:40:05.898Z,95.02
2023-03-04T01:42:36.009Z,95.45
2023-03-04T01:45:05.481Z,95.77
2023-03-04T01:47:36.172Z,95.84
2023-03-04T01:50:07.587Z,96.26
2023-03-04T01:52:34.690Z,96.53
2023-03-04T01:55:02.688Z,96.35
2023-03-04T01:57:35.564Z,96.50
2023-03-04T02:00:29.193Z,96.24
2023-03-04T02:03:01.100Z,96.21
2023-03-04T02:05:28.800Z,95.79
2023-03-04T02:07:57.336Z,95.92
2023-03-04T02:10:24.946Z,96.02
2023-03-04T02:12:52.778Z,95.70
2023-03-04T02:15:21.098Z,95.68
2023-03-04T02:17:48.460Z,95.80
2023-03-04T02:20:28.430Z,95.54
2023-03-04T02:23:04.247Z,95.15
2023-03-04T02:25:39.823Z,95.29
2023-03-04T02:28:07.226Z,95.47
2023-03-04T02:30:35.204Z,95.55
2023-03-04T02:33:02.309Z,95.76
2023-03-04T02:35:31.036Z,95.88
2023-03-04T02:37:58.255Z,96.08
2023-03-04T02:40:32.970Z,95.92
2023-03-04T02:43:01.023Z,96.05
2023-03-04T02:45:31.172Z,95.87
2023-03-04T02:47:58.313Z,95.68
2023-03-04T02:50:28.580Z,95.87
2023-03-04T02:52:55.652Z,96.30
2023-03-04T02:55:23.212Z,96.39
2023-03-04T02:57:50.794Z,96.26
2023-03-04T03:00:18.182Z,96.45
2023-03-04T03:02:45.835Z,96.10
2023-03-04T03:05:14.348Z,95.80
2023-03-04T03:07:41.312Z,96.04
2023-03-04T03:10:09.268Z,95.81
2023-03-04T03:12:36.921Z,96.00
2023-03-04T03:15:05.210Z,95.95
2023-03-04T03:17:32.928Z,96.15
2023-03-04T03:20:00.480Z,96.02
2023-03-04T03:22:27.422Z,96.25
2023-03-04T03:24:54.675Z,96.29
2023-03-04T03:27:21.594Z,96.21
2023-03-04T03:29:50.202Z,96.41
2023-03-04T03:32:17.289Z,95.85
2023-03-04T03:34:44.775Z,95.25
2023-03-04T03:37:12.580Z,95.17
2023-03-04T03:39:39.788Z,94.94
2023-03-04T03:42:07.481Z,94.85
2023-03-04T03:44:35.076Z,95.05
2023-03-04T03:47:02.927Z,95.53
2023-03-04T03:49:30.335Z,95.42
2023-03-04T03:51:57.271Z,94.91
2023-03-04T03:54:24.511Z,94.51
2023-03-04T03:56:51.649Z,94.37
2023-03-04T03:59:18.900Z,94.30
2023-03-04T04:01:46.079Z,94.59
2023-03-04T04:04:14.326Z,94.11
2023-03-04T04:06:41.714Z,94.22
2023-03-04T04:09:08.881Z,94.02
2023-03-04T04:11:35.777Z,94.09
2023-03-04T04:14:03.472Z,93.89
2023-03-04T04:16:30.843Z,94.05
2023-03-04T04:18:58.500Z,93.81
2023-03-04T04:21:25.482Z,94.00
2023-03-04T04:23:53.019Z,93.89
2023-03-04T04:26:19.913Z,93.97
2023-03-04T04:28:48.020Z,94.21
2023-03-04T04:31:15.317Z,93.92
2023-03-04T04:33:42.895Z,93.91
2023-03-04T04:36:14.583Z,93.80
2023-03-04T04:38:41.954Z,93.40
2023-03-04T04:41:21.394Z,93.74
2023-03-04T04:43:49.205Z,93.81
2023-03-04T04:46:17.136Z,93.89
2023-03-04T04:48:45.019Z,93.56
2023-03-04T04:51:12.329Z,93.51
2023-03-04T04:53:40.002Z,93.45
2023-03-04T04:56:11.864Z,93.45
2023-03-04T04:58:39.592Z,93.09
2023-03-04T05:01:07.281Z,93.24
2023-03-04T05:03:35.622Z,92.89
2023-03-04T05:06:05.321Z,93.12
2023-03-04T05:08:32.767Z,93.34
2023-03-04T05:11:00.194Z,93.13
2023-03-04T05:13:28.496Z,92.92
2023-03-04T05:15:56.691Z,93.13
2023-03-04T05:18:25.756Z,93.02
2023-03-04T05:20:54.510Z,93.26
2023-03-04T05:23:22.993Z,93.08
2023-03-04T05:25:50.009Z,92.90
2023-03-04T05:28:18.047Z,92.50
2023-03-04T05:30:46.615Z,92.10
2023-03-04T05:33:17.271Z,92.72
2023-03-04T05:35:46.035Z,92.64
2023-03-04T05:38:14.858Z,92.61
2023-03-04T05:40:43.513Z,92.40
2023-03-04T05:43:11.566Z,92.77
2023-03-04T05:45:39.171Z,92.92
2023-03-04T05:48:07.862Z,92.75
2023-03-04T05:50:35.938Z,92.75
2023-03-04T05:53:03.112Z,92.44
2023-03-04T05:55:30.127Z,92.88
2023-03-04T05:57:57.879Z,92.96
2023-03-04T06:00:25.795Z,93.21
2023-03-04T06:02:53.491Z,93.06
2023-03-04T06:05:22.269Z,93.02
2023-03-04T06:07:49.519Z,93.21
2023-03-04T06:10:18.043Z,92.92
2023-03-04T06:12:45.477Z,93.43
2023-03-04T06:15:13.086Z,93.14
2023-03-04T06:17:42.399Z,93.41
2023-03-04T06:20:11.193Z,93.26
2023-03-04T06:22:38.662Z,93.54
2023-03-04T06:25:06.307Z,93.68
2023-03-04T06:27:33.496Z,94.03
2023-03-04T06:30:01.924Z,93.42
2023-03-04T06:32:29.467Z,93.95
2023-03-04T06:34:56.675Z,94.08
2023-03-04T06:37:24.016Z,94.08
2023-03-04T06:39:51.168Z,94.32
2023-03-04T06:42:19.607Z,93.92
2023-03-04T06:44:48.346Z,94.34
2023-03-04T06:47:16.703Z,94.38
2023-03-04T06:49:43.639Z,94.13
2023-03-04T06:52:12.958Z,93.98
2023-03-04T06:54:40.660Z,94.30
2023-03-04T06:57:08.337Z,94.41
2023-03-04T06:59:35.253Z,94.14
2023-03-04T07:02:02.922Z,93.79
2023-03-04T07:04:29.930Z,93.83
2023-03-04T07:06:58.390Z,93.84
2023-03-04T07:09:25.518Z,93.83
2023-03-04T07:11:52.720Z,94.04
2023-03-04T07:14:20.471Z,93.36
2023-03-04T07:16:48.655Z,93.95
2023-03-04T07:19:15.762Z,93.76
2023-03-04T07:21:43.282Z,93.72
2023-03-04T07:24:10.526Z,93.48
2023-03-04T07:26:38.516Z,93.78
2023-03-04T07:29:05.948Z,93.32
2023-03-04T07:31:35.649Z,93.10
2023-03-04T07:34:05.404Z,92.72
2023-03-04T07:36:35.645Z,92.88
2023-03-04T07:39:02.578Z,92.69
2023-03-04T07:41:31.114Z,92.19
2023-03-04T07:43:58.646Z,92.10
2023-03-04T07:46:26.144Z,92.25
2023-03-04T07:48:54.573Z,91.88
2023-03-04T07:51:24.402Z,91.83
2023-03-04T07:53:55.808Z,92.00
2023-03-04T07:56:24.364Z,90.80
2023-03-04T07:58:54.853Z,91.19
2023-03-04T08:01:25.255Z,91.40
2023-03-04T08:03:52.854Z,91.01
2023-03-04T08:06:21.729Z,91.16
2023-03-04T08:08:50.188Z,91.10
2023-03-04T08:11:20.977Z,91.42
2023-03-04T08:13:49.020Z,90.52
2023-03-04T08:16:19.449Z,90.55
2023-03-04T08:18:49.591Z,90.94
2023-03-04T08:21:19.518Z,90.49
2023-03-04T08:23:47.206Z,90.56
2023-03-04T08:26:22.932Z,90.28
2023-03-04T08:28:50.782Z,89.92
2023-03-04T08:31:19.083Z,90.12
2023-03-04T08:33:47.101Z,89.91
2023-03-04T08:36:15.379Z,90.24
2023-03-04T08:38:42.789Z,89.40
2023-03-04T08:41:10.545Z,89.38
2023-03-04T08:43:37.747Z,89.96
2023-03-04T08:46:06.353Z,90.65
2023-03-04T08:48:34.565Z,90.08
2023-03-04T08:51:06.900Z,90.69
2023-03-04T08:53:34.584Z,89.64
2023-03-04T08:56:02.052Z,89.90
2023-03-04T08:58:29.501Z,89.73
2023-03-04T09:01:01.552Z,90.14
2023-03-04T09:03:29.468Z,90.80
2023-03-04T09:05:57.042Z,90.67
2023-03-04T09:08:24.777Z,90.23
2023-03-04T09:10:54.399Z,90.39
2023-03-04T09:13:26.453Z,90.40
2023-03-04T09:15:54.760Z,89.53
2023-03-04T09:18:23.625Z,89.71
2023-03-04T09:20:51.344Z,89.32
2023-03-04T09:23:21.211Z,88.58
2023-03-04T09:25:49.881Z,88.42
2023-03-04T09:28:18.545Z,88.34
2023-03-04T09:30:45.826Z,88.05
2023-03-04T09:33:13.828Z,87.53
2023-03-04T09:35:41.428Z,87.48
2023-03-04T09:38:08.666Z,87.66
2023-03-04T09:40:45.655Z,87.80
2023-03-04T09:43:20.813Z,87.99
2023-03-04T09:45:53.290Z,88.71
2023-03-04T09:48:30.045Z,88.72
2023-03-04T09:51:12.806Z,88.05
2023-03-04T09:53:52.060Z,88.66
2023-03-04T09:56:19.973Z,88.69
2023-03-04T09:58:56.701Z,88.78
2023-03-04T10:01:40.350Z,88.83
2023-03-04T10:04:22.560Z,88.75
2023-03-04T10:06:54.611Z,88.61
2023-03-04T10:09:39.902Z,88.88
2023-03-04T10:12:13.513Z,89.07
2023-03-04T10:14:51.228Z,87.98
2023-03-04T10:17:38.215Z,87.98
2023-03-04T10:20:08.159Z,88.39
2023-03-04T10:22:50.286Z,87.95
2023-03-04T10:25:29.723Z,88.18
2023-03-04T10:28:10.876Z,87.96
2023-03-04T10:30:56.360Z,88.56
2023-03-04T10:33:27.664Z,88.88
2023-03-04T10:36:05.702Z,88.29
2023-03-04T10:38:37.172Z,88.21
2023-03-04T10:41:19.906Z,88.36
2023-03-04T10:44:14.468Z,87.40
2023-03-04T10:46:44.660Z,87.16
2023-03-04T10:49:15.138Z,87.87
2023-03-04T10:52:25.523Z,88.13
2023-03-04T10:54:55.862Z,89.78
2023-03-04T10:57:39.879Z,90.47
2023-03-04T11:00:26.617Z,92.20
2023-03-04T11:03:22.170Z,92.51
2023-03-04T11:05:50.085Z,92.72
2023-03-04T11:08:22.268Z,93.57
2023-03-04T11:10:52.452Z,93.59
2023-03-04T11:13:28.515Z,93.39
2023-03-04T11:16:01.039Z,93.98
2023-03-04T11:18:37.622Z,93.60
2023-03-04T11:21:06.925Z,92.79
2023-03-04T11:23:42.409Z,93.58
2023-03-04T11:26:16.683Z,93.74
2023-03-04T11:28:59.739Z,94.17
2023-03-04T11:31:33.985Z,93.00
2023-03-04T11:34:16.678Z,92.96
2023-03-04T11:36:50.585Z,93.05
2023-03-04T11:39:27.232Z,92.02
2023-03-04T11:42:01.606Z,92.25
2023-03-04T11:44:30.887Z,92.87
2023-03-04T11:47:27.352Z,93.80
2023-03-04T11:50:01.044Z,94.03
2023-03-04T11:52:55.827Z,94.72
2023-03-04T11:55:31.493Z,94.55
2023-03-04T11:58:01.616Z,94.81
2023-03-04T12:00:44.032Z,95.00
2023-03-04T12:03:26.442Z,94.58
2023-03-04T12:06:03.325Z,94.90
2023-03-04T12:08:46.864Z,95.70
2023-03-04T12:11:20.492Z,96.17
2023-03-04T12:13:48.258Z,96.13
2023-03-04T12:16:39.610Z,97.21
2023-03-04T12:19:27.454Z,97.22
2023-03-04T12:22:11.629Z,97.75
2023-03-04T12:24:56.738Z,98.72
2023-03-04T12:27:51.870Z,98.79
2023-03-04T12:30:22.304Z,99.30
2023-03-04T12:32:57.345Z,98.68
2023-03-04T12:35:34.310Z,99.36
2023-03-04T12:38:12.825Z,98.53
2023-03-04T12:41:01.258Z,98.62
2023-03-04T12:43:41.738Z,98.76
2023-03-04T12:46:27.240Z,97.97
2023-03-04T12:49:16.930Z,98.66
2023-03-04T12:52:32.273Z,97.08
2023-03-04T12:55:04.023Z,95.72
2023-03-04T12:57:33.347Z,95.88
2023-03-04T13:00:09.288Z,95.31
2023-03-04T13:02:46.413Z,95.45
2023-03-04T13:05:35.804Z,95.11
2023-03-04T13:08:13.450Z,95.17
2023-03-04T13:10:40.550Z,95.06
2023-03-04T13:13:33.682Z,96.04
2023-03-04T13:16:32.942Z,94.64
2023-03-04T13:19:00.740Z,93.93
2023-03-04T13:21:32.193Z,93.77
2023-03-04T13:24:38.266Z,92.91
2023-03-04T13:27:42.979Z,92.47
2023-03-04T13:30:32.084Z,92.67
2023-03-04T13:33:21.694Z,92.09
2023-03-04T13:36:27.741Z,92.79
2023-03-04T13:39:16.908Z,93.84
2023-03-04T13:41:56.976Z,94.35
2023-03-04T13:44:42.510Z,94.21
2023-03-04T13:47:18.859Z,93.36
2023-03-04T13:49:46.104Z,92.84
2023-03-04T13:52:42.742Z,95.07
2023-03-04T13:55:36.489Z,95.17
2023-03-04T13:58:27.134Z,95.94
2023-03-04T14:00:56.164Z,98.25
2023-03-04T14:03:29.214Z,100.00
2023-03-04T14:06:41.441Z,100.00
2023-03-04T14:09:21.098Z,100.00
2023-03-04T14:11:51.754Z,100.00
2023-03-04T14:14:24.337Z,100.00
2023-03-04T14:16:58.732Z,100.00
2023-03-04T14:19:30.498Z,100.00
2023-03-04T14:21:59.723Z,100.00
2023-03-04T14:24:30.793Z,100.00
2023-03-04T14:27:13.433Z,100.00
2023-03-04T14:29:40.818Z,100.00
2023-03-04T14:32:08.192Z,100.00
2023-03-04T14:34:38.061Z,100.00
2023-03-04T14:37:23.052Z,100.00
2023-03-04T14:39:56.211Z,100.00
2023-03-04T14:42:28.352Z,100.00
2023-03-04T14:44:59.793Z,100.00
2023-03-04T14:47:40.151Z,99.50
2023-03-04T14:50:13.902Z,97.08
2023-03-04T14:52:43.659Z,95.23
2023-03-04T14:55:27.384Z,89.31
2023-03-04T14:58:09.671Z,81.03
2023-03-04T15:00:42.794Z,78.51
2023-03-04T15:03:40.476Z,78.43
2023-03-04T15:06:23.263Z,79.59
2023-03-04T15:09:00.839Z,78.36
2023-03-04T15:11:44.855Z,78.15
2023-03-04T15:14:41.166Z,73.28
2023-03-04T15:17:26.576Z,72.55
2023-03-04T15:20:06.045Z,71.76
2023-03-04T15:22:57.905Z,72.66
2023-03-04T15:25:25.156Z,70.82
2023-03-04T15:27:54.207Z,66.49
2023-03-04T15:30:31.295Z,65.49
2023-03-04T15:32:59.882Z,63.18
2023-03-04T15:35:31.097Z,65.78
2023-03-04T15:37:58.965Z,62.70
2023-03-04T15:40:34.018Z,62.15
2023-03-04T15:43:04.109Z,57.89
2023-03-04T15:45:37.074Z,54.25
2023-03-04T15:48:09.137Z,55.72
2023-03-04T15:50:43.176Z,55.50
2023-03-04T15:53:17.608Z,55.47
2023-03-04T15:55:46.617Z,54.93
2023-03-04T15:58:14.818Z,55.00
2023-03-04T16:00:42.310Z,55.73
2023-03-04T16:03:17.392Z,57.39
2023-03-04T16:05:47.209Z,58.40
2023-03-04T16:08:17.388Z,58.45
2023-03-04T16:10:45.171Z,57.86
2023-03-04T16:13:18.585Z,59.81
2023-03-04T16:15:46.382Z,55.96
2023-03-04T16:18:15.540Z,57.90
2023-03-04T16:20:49.614Z,56.50
2023-03-04T16:23:22.206Z,54.54
2023-03-04T16:25:52.562Z,54.77
2023-03-04T16:28:20.060Z,55.05
2023-03-04T16:30:47.134Z,53.71
2023-03-04T16:33:16.224Z,53.48
2023-03-04T16:35:44.378Z,53.72
2023-03-04T16:38:28.749Z,53.65
2023-03-04T16:40:57.818Z,53.94
2023-03-04T16:43:26.062Z,50.87
2023-03-04T16:45:53.056Z,50.13
2023-03-04T16:48:20.438Z,48.95
2023-03-04T16:50:47.991Z,46.67
2023-03-04T16:53:35.745Z,46.25
2023-03-04T16:56:19.738Z,46.70
2023-03-04T16:58:47.687Z,46.87
2023-03-04T17:01:17.222Z,46.25
2023-03-04T17:03:44.719Z,47.33
2023-03-04T17:06:12.377Z,47.76
2023-03-04T17:08:40.104Z,47.53
2023-03-04T17:11:08.109Z,47.04
2023-03-04T17:13:35.292Z,47.26
2023-03-04T17:16:03.540Z,48.05
2023-03-04T17:18:31.221Z,47.72
2023-03-04T17:21:07.008Z,48.08
2023-03-04T17:23:35.101Z,47.89
2023-03-04T17:26:02.867Z,47.57
2023-03-04T17:28:30.825Z,47.19
2023-03-04T17:30:57.837Z,47.43
2023-03-04T17:33:25.122Z,47.93
2023-03-04T17:35:52.077Z,48.51
2023-03-04T17:38:19.331Z,48.52
2023-03-04T17:40:47.016Z,48.25
2023-03-04T17:43:14.218Z,48.80
2023-03-04T17:45:42.316Z,48.61
2023-03-04T17:48:15.074Z,48.49
2023-03-04T17:50:52.083Z,48.17
2023-03-04T17:53:20.125Z,48.99
2023-03-04T17:55:55.405Z,48.15
2023-03-04T17:58:23.971Z,47.43
2023-03-04T18:00:52.913Z,47.85
2023-03-04T18:03:20.513Z,47.68
2023-03-04T18:05:47.873Z,47.52
2023-03-04T18:08:15.113Z,47.29
2023-03-04T18:10:42.300Z,46.35
2023-03-04T18:13:09.712Z,47.17
2023-03-04T18:15:37.181Z,47.56
2023-03-04T18:18:04.413Z,47.21
2023-03-04T18:20:31.730Z,46.98
2023-03-04T18:22:59.814Z,47.82
2023-03-04T18:25:26.758Z,47.44
2023-03-04T18:27:54.027Z,47.13
2023-03-04T18:30:27.126Z,47.21
2023-03-04T18:32:56.956Z,47.60
2023-03-04T18:35:24.502Z,47.44
2023-03-04T18:37:52.019Z,47.08
2023-03-04T18:40:19.574Z,46.11
2023-03-04T18:42:47.036Z,46.42
2023-03-04T18:45:15.657Z,46.76
2023-03-04T18:47:48.750Z,45.98
2023-03-04T18:50:16.398Z,45.76
2023-03-04T18:52:45.027Z,45.71
2023-03-04T18:55:13.130Z,45.71
2023-03-04T18:57:46.265Z,45.16
2023-03-04T19:00:24.073Z,45.84
2023-03-04T19:02:52.296Z,45.80
2023-03-04T19:05:27.520Z,46.08
2023-03-04T19:07:55.244Z,45.85
2023-03-04T19:10:22.422Z,45.93
2023-03-04T19:12:50.007Z,46.24
2023-03-04T19:15:18.373Z,46.98
2023-03-04T19:17:46.158Z,47.15
2023-03-04T19:20:14.585Z,46.85
2023-03-04T19:22:43.167Z,46.70
2023-03-04T19:25:10.213Z,47.47
2023-03-04T19:27:37.811Z,47.81
2023-03-04T19:30:06.724Z,47.17
2023-03-04T19:32:34.155Z,46.91
2023-03-04T19:35:01.441Z,47.89
2023-03-04T19:37:28.825Z,48.50
2023-03-04T19:39:56.128Z,47.52
2023-03-04T19:42:24.171Z,47.58
2023-03-04T19:44:51.812Z,47.57
2023-03-04T19:47:18.837Z,48.39
2023-03-04T19:49:46.344Z,48.55
2023-03-04T19:52:13.208Z,48.11
2023-03-04T19:54:41.032Z,48.39
2023-03-04T19:57:07.957Z,49.36
2023-03-04T19:59:35.229Z,49.92
2023-03-04T20:02:03.144Z,49.01
2023-03-04T20:04:30.631Z,48.98
2023-03-04T20:06:57.638Z,48.84
2023-03-04T20:09:25.315Z,49.35
2023-03-04T20:11:58.774Z,48.98
2023-03-04T20:14:27.917Z,48.78
2023-03-04T20:17:00.702Z,48.70
2023-03-04T20:19:31.580Z,49.25
2023-03-04T20:21:58.701Z,49.21
2023-03-04T20:24:26.495Z,49.67
2023-03-04T20:26:54.273Z,50.08
2023-03-04T20:29:21.509Z,49.51
2023-03-04T20:31:49.831Z,50.22
2023-03-04T20:34:17.342Z,50.45
2023-03-04T20:36:44.880Z,50.21
2023-03-04T20:39:27.529Z,50.80
2023-03-04T20:41:57.659Z,50.63
2023-03-04T20:44:25.293Z,51.12
2023-03-04T20:46:52.919Z,51.25
2023-03-04T20:49:24.305Z,51.13
2023-03-04T20:51:53.615Z,51.68
2023-03-04T20:54:21.005Z,51.96
2023-03-04T20:56:48.865Z,52.68
2023-03-04T20:59:16.580Z,51.99
2023-03-04T21:01:45.484Z,52.79
2023-03-04T21:04:12.745Z,52.22
2023-03-04T21:06:40.838Z,53.66
2023-03-04T21:09:13.001Z,53.48
2023-03-04T21:11:41.174Z,53.45
2023-03-04T21:14:13.590Z,53.21
2023-03-04T21:16:40.992Z,53.54
2023-03-04T21:19:15.461Z,53.68
2023-03-04T21:21:42.872Z,53.55
2023-03-04T21:24:14.245Z,53.85
2023-03-04T21:26:45.172Z,53.39
2023-03-04T21:29:13.905Z,53.85
2023-03-04T21:31:44.058Z,54.33
2023-03-04T21:34:16.678Z,54.33
2023-03-04T21:36:43.819Z,54.47
2023-03-04T21:39:19.654Z,53.31
2023-03-04T21:41:47.390Z,53.64
2023-03-04T21:44:27.709Z,53.34
2023-03-04T21:46:57.174Z,53.51
2023-03-04T21:49:25.896Z,53.74
2023-03-04T21:51:52.979Z,52.94
2023-03-04T21:54:20.697Z,53.53
2023-03-04T21:56:47.655Z,53.68
2023-03-04T21:59:15.253Z,53.94
2023-03-04T22:01:42.516Z,53.99
2023-03-04T22:04:10.009Z,53.42
2023-03-04T22:06:38.337Z,53.80
2023-03-04T22:09:06.889Z,53.16
2023-03-04T22:11:34.564Z,53.09
2023-03-04T22:14:03.119Z,53.56
2023-03-04T22:16:32.781Z,53.46
2023-03-04T22:19:01.310Z,53.89
2023-03-04T22:21:28.202Z,53.91
2023-03-04T22:23:55.539Z,53.48
2023-03-04T22:26:30.107Z,54.11
2023-03-04T22:28:58.026Z,53.85
2023-03-04T22:31:31.519Z,53.39
2023-03-04T22:34:05.591Z,53.45
2023-03-04T22:36:35.906Z,53.80
2023-03-04T22:39:05.437Z,53.71
2023-03-04T22:41:33.325Z,54.52
2023-03-04T22:44:00.917Z,54.05
2023-03-04T22:46:30.948Z,53.79
2023-03-04T22:49:01.259Z,54.00
2023-03-04T22:51:28.948Z,54.68
2023-03-04T22:53:56.684Z,55.19
2023-03-04T22:56:23.830Z,55.86
2023-03-04T22:58:51.534Z,55.73
2023-03-04T23:01:19.782Z,55.65
2023-03-04T23:03:49.135Z,55.76
2023-03-04T23:06:17.815Z,56.54
2023-03-04T23:08:47.504Z,56.77
2023-03-04T23:11:32.373Z,56.81
2023-03-04T23:14:02.322Z,57.14
2023-03-04T23:16:29.559Z,57.37
2023-03-04T23:18:59.323Z,58.09
2023-03-04T23:21:28.279Z,58.19
2023-03-04T23:23:55.890Z,58.75
2023-03-04T23:26:26.782Z,59.46
2023-03-04T23:28:57.027Z,59.29
2023-03-04T23:31:25.605Z,59.46
2023-03-04T23:33:57.290Z,60.29
2023-03-04T23:36:27.099Z,60.82
2023-03-04T23:38:55.381Z,60.67
2023-03-04T23:41:25.226Z,60.94
2023-03-04T23:43:54.680Z,61.15
2023-03-04T23:46:22.295Z,61.75
2023-03-04T23:48:50.040Z,61.38
2023-03-04T23:51:21.147Z,61.77
2023-03-04T23:53:49.159Z,61.04
2023-03-04T23:56:19.600Z,61.49
2023-03-04T23:58:47.728Z,61.72
